West Falls, NY (14170)

10:38 PM EDT on July 27, 2016 (GMT -0400)
East Hill | | Change Station

Elev 1594 ft 42.65 °N, 78.70 °W | Updated 4 seconds ago

Mostly Cloudy
Mostly Cloudy
69.9 °F
Feels Like 69.9 °F
N
0.0
Wind Variable Wind from SW
Gusts 3.0 mph

Today
High -- | Low -- °F
--% Chance of Precip.
Yesterday
High -- | Low -- °F
Precip. -- in
Pressure 29.93 in
Visibility 10.0 miles
Clouds Few 5500 ft
Scattered Clouds 11000 ft
Mostly Cloudy 27000 ft
Dew Point 63 °F
Humidity 79%
Rainfall 0.00 in
Snow Depth Not available.
6:01 AM 8:40 PM
Last Quarter, 37% visible
METAR KBUF 280154Z 24005KT 10SM FEW055 SCT110 BKN270 25/19 A2994 RMK AO2 SLP134 TCU DSNT NW T02500189
Pressure 29.93 in
Visibility 10.0 miles
Clouds Few 5500 ft
Scattered Clouds 11000 ft
Mostly Cloudy 27000 ft
Dew Point 63 °F
Humidity 79%
Rainfall 0.00 in
Snow Depth Not available.
6:01 AM 8:40 PM
Last Quarter, 37% visible
METAR KBUF 280154Z 24005KT 10SM FEW055 SCT110 BKN270 25/19 A2994 RMK AO2 SLP134 TCU DSNT NW T02500189

10-Day Weather Forecast

Almanac

Astronomy

Jul. 27, 2016 Rise Set
Actual Time
Civil Twilight
Nautical Twilight
Astronomical Twilight
Moon
Length of Visible Light
Length of Day
Tomorrow will be .
, % of the Moon is Illuminated

Today's Extremes

State Highs State Lows

Community

WunderPhotos

Upload Photos

1,928,015 photos uploaded!

WunderBlog® & News

Nearby

Air Quality

  Air Quality AQ Index Pollutant
Not available.

Snow Depth

Station Depth Elevation

Earthquake Activity

City Distance Mag. Time & Date
Minimum magnitude displayed is 2.5.

Coastal Water Temperatures

Place Temperature

Stations

Nearby Weather Stations

Station Location Temp. Windchill Dew Point Humidity Wind Precip. Elev Updated Type
                   

Watches & Warnings

There are currently no watches in effect.